createdAt,value
2022-08-07T00:04:00.588Z,0.90
2022-08-07T00:06:33.350Z,0.70
2022-08-07T00:09:16.272Z,1.10
2022-08-07T00:11:54.144Z,1.00
2022-08-07T00:14:25.474Z,1.20
2022-08-07T00:16:52.631Z,1.08
2022-08-07T00:19:21.388Z,0.93
2022-08-07T00:21:57.083Z,1.20
2022-08-07T00:24:28.565Z,1.02
2022-08-07T00:27:07.512Z,1.13
2022-08-07T00:29:37.128Z,1.30
2022-08-07T00:32:05.758Z,1.08
2022-08-07T00:34:35.364Z,1.15
2022-08-07T00:37:05.015Z,0.90
2022-08-07T00:39:32.294Z,0.98
2022-08-07T00:42:02.444Z,1.73
2022-08-07T00:44:33.038Z,1.05
2022-08-07T00:47:00.822Z,1.00
2022-08-07T00:50:19.916Z,1.10
2022-08-07T00:52:19.916Z,0.90
2022-08-07T00:54:55.071Z,0.77
2022-08-07T00:57:25.816Z,0.70
2022-08-07T00:59:53.740Z,1.00
2022-08-07T01:02:29.195Z,1.30
2022-08-07T01:04:58.814Z,0.80
2022-08-07T01:07:27.640Z,0.82
2022-08-07T01:10:05.935Z,0.98
2022-08-07T01:12:40.124Z,1.08
2022-08-07T01:15:22.678Z,0.82
2022-08-07T01:18:03.010Z,0.75
2022-08-07T01:20:35.345Z,0.80
2022-08-07T01:23:12.707Z,0.75
2022-08-07T01:25:55.280Z,1.25
2022-08-07T01:28:23.679Z,1.10
2022-08-07T01:30:52.101Z,0.65
2022-08-07T01:35:53.234Z,0.80
2022-08-07T01:38:25.378Z,0.77
2022-08-07T01:40:59.662Z,1.00
2022-08-07T01:43:34.800Z,0.82
2022-08-07T01:46:05.726Z,0.80
2022-08-07T01:48:35.445Z,0.80
2022-08-07T01:52:01.032Z,1.48
2022-08-07T01:54:12.807Z,0.95
2022-08-07T01:57:24.300Z,0.90
2022-08-07T01:59:57.024Z,0.80
2022-08-07T02:03:12.059Z,0.90
2022-08-07T02:06:00.008Z,0.80
2022-08-07T02:08:30.602Z,0.73
2022-08-07T02:10:59.685Z,0.98
2022-08-07T02:13:58.277Z,0.90
2022-08-07T02:16:19.738Z,0.98
2022-08-07T02:18:48.098Z,2.53
2022-08-07T02:21:19.837Z,0.73
2022-08-07T02:23:47.655Z,0.80
2022-08-07T02:26:32.831Z,0.90
2022-08-07T02:29:02.771Z,0.90
2022-08-07T02:31:30.973Z,1.10
2022-08-07T02:34:03.446Z,1.05
2022-08-07T02:36:33.783Z,0.77
2022-08-07T02:39:16.253Z,0.88
2022-08-07T02:41:50.521Z,0.90
2022-08-07T02:46:52.715Z,0.93
2022-08-07T02:49:55.614Z,0.80
2022-08-07T02:52:10.648Z,0.80
2022-08-07T02:55:00.981Z,1.15
2022-08-07T02:57:34.065Z,0.88
2022-08-07T03:00:05.108Z,0.80
2022-08-07T03:02:37.991Z,0.80
2022-08-07T03:05:22.986Z,0.80
2022-08-07T03:08:07.462Z,0.57
2022-08-07T03:10:46.215Z,1.20
2022-08-07T03:13:19.288Z,0.77
2022-08-07T03:15:56.742Z,1.08
2022-08-07T03:18:34.565Z,1.00
2022-08-07T03:21:08.497Z,1.20
2022-08-07T03:24:21.038Z,1.55
2022-08-07T03:26:30.195Z,0.60
2022-08-07T03:28:58.791Z,1.02
2022-08-07T03:31:43.255Z,1.17
2022-08-07T03:34:18.535Z,0.90
2022-08-07T03:36:50.588Z,1.10
2022-08-07T03:39:45.990Z,0.93
2022-08-07T03:42:06.107Z,0.88
2022-08-07T03:44:37.509Z,1.00
2022-08-07T03:47:13.287Z,0.80
2022-08-07T03:49:47.778Z,0.95
2022-08-07T03:52:22.661Z,1.20
2022-08-07T03:54:54.547Z,0.70
2022-08-07T03:58:34.862Z,0.90
2022-08-07T04:00:14.304Z,0.77
2022-08-07T04:02:43.051Z,0.70
2022-08-07T04:05:14.057Z,0.70
2022-08-07T04:07:46.321Z,0.90
2022-08-07T04:10:15.669Z,0.90
2022-08-07T04:12:46.452Z,0.90
2022-08-07T04:15:15.834Z,0.95
2022-08-07T04:18:56.559Z,1.00
2022-08-07T04:20:31.660Z,0.80
2022-08-07T04:23:06.187Z,1.10
2022-08-07T04:25:39.130Z,0.82
2022-08-07T04:28:08.107Z,0.98
2022-08-07T04:30:43.994Z,1.08
2022-08-07T04:33:23.929Z,1.38
2022-08-07T04:35:54.365Z,1.00
2022-08-07T04:38:22.189Z,0.82
2022-08-07T04:40:52.625Z,1.05
2022-08-07T04:44:09.947Z,1.00
2022-08-07T04:46:34.414Z,0.70
2022-08-07T04:49:37.777Z,1.10
2022-08-07T04:52:18.626Z,1.00
2022-08-07T04:55:15.190Z,1.35
2022-08-07T04:58:10.149Z,1.35
2022-08-07T05:06:51.595Z,1.50
2022-08-07T05:09:57.394Z,1.25
2022-08-07T05:12:35.029Z,1.10
2022-08-07T05:15:23.638Z,1.38
2022-08-07T05:17:56.550Z,1.23
2022-08-07T05:20:27.121Z,1.05
2022-08-07T05:22:58.385Z,1.50
2022-08-07T05:26:09.889Z,1.63
2022-08-07T05:28:22.613Z,1.33
2022-08-07T05:30:52.811Z,1.20
2022-08-07T05:33:21.532Z,1.65
2022-08-07T05:35:51.170Z,1.38
2022-08-07T05:38:59.451Z,1.60
2022-08-07T05:41:14.423Z,1.45
2022-08-07T05:44:08.613Z,1.50
2022-08-07T05:46:38.161Z,1.88
2022-08-07T05:49:12.536Z,1.75
2022-08-07T05:51:42.185Z,2.20
2022-08-07T05:54:30.208Z,2.20
2022-08-07T05:56:57.680Z,2.50
2022-08-07T05:59:27.286Z,2.17
2022-08-07T06:01:57.314Z,2.10
2022-08-07T06:04:30.087Z,2.20
2022-08-07T06:07:03.645Z,2.03
2022-08-07T06:12:18.393Z,2.10
2022-08-07T06:14:49.495Z,1.65
2022-08-07T06:17:18.051Z,1.70
2022-08-07T06:19:52.391Z,2.03
2022-08-07T06:22:36.889Z,1.73
2022-08-07T06:25:06.451Z,1.40
2022-08-07T06:27:59.687Z,1.52
2022-08-07T06:30:35.302Z,1.70
2022-08-07T06:36:12.918Z,1.80
2022-08-07T06:42:02.123Z,1.95
2022-08-07T06:44:33.942Z,2.80
2022-08-07T06:47:12.371Z,3.20
2022-08-07T06:49:51.826Z,2.58
2022-08-07T06:52:31.928Z,2.97
2022-08-07T06:55:33.474Z,3.15
2022-08-07T06:57:57.187Z,3.50
2022-08-07T07:00:28.394Z,3.72
2022-08-07T07:02:57.679Z,3.67
2022-08-07T07:06:04.954Z,3.00
2022-08-07T07:08:18.313Z,3.28
2022-08-07T07:10:56.597Z,3.30
2022-08-07T07:13:55.536Z,3.20
2022-08-07T07:16:22.112Z,3.17
2022-08-07T07:18:52.473Z,3.78
2022-08-07T07:22:04.030Z,3.35
2022-08-07T07:24:21.249Z,4.35
2022-08-07T07:26:52.544Z,3.88
2022-08-07T07:29:56.017Z,3.45
2022-08-07T07:32:12.276Z,3.50
2022-08-07T07:34:44.178Z,3.25
2022-08-07T07:37:45.367Z,3.90
2022-08-07T07:40:14.806Z,3.80
2022-08-07T07:42:51.128Z,3.53
2022-08-07T07:46:36.989Z,3.50
2022-08-07T07:48:34.753Z,3.88
2022-08-07T07:51:02.632Z,3.92
2022-08-07T07:53:50.342Z,3.25
2022-08-07T07:56:19.432Z,2.95
2022-08-07T07:58:59.921Z,3.78
2022-08-07T08:04:12.742Z,3.38
2022-08-07T08:06:50.827Z,3.00
2022-08-07T08:09:22.708Z,3.67
2022-08-07T08:12:02.179Z,3.17
2022-08-07T08:14:36.576Z,2.92
2022-08-07T08:17:55.464Z,3.10
2022-08-07T08:20:18.779Z,3.30
2022-08-07T08:23:08.234Z,3.05
2022-08-07T08:25:56.544Z,3.47
2022-08-07T08:28:38.409Z,3.28
2022-08-07T08:31:59.296Z,3.17
2022-08-07T08:34:12.370Z,3.17
2022-08-07T08:36:57.819Z,3.58
2022-08-07T08:39:39.328Z,3.00
2022-08-07T08:42:27.495Z,3.58
2022-08-07T08:45:04.245Z,3.30
2022-08-07T08:47:59.199Z,3.28
2022-08-07T08:50:39.172Z,2.47
2022-08-07T08:53:19.698Z,2.80
2022-08-07T08:55:58.533Z,2.70
2022-08-07T08:58:41.358Z,2.95
2022-08-07T09:01:18.478Z,2.83
2022-08-07T09:04:25.967Z,2.80
2022-08-07T09:07:03.450Z,2.97
2022-08-07T09:09:56.568Z,2.35
2022-08-07T09:12:38.079Z,1.85
2022-08-07T09:16:25.227Z,2.30
2022-08-07T09:18:16.855Z,2.15
2022-08-07T09:21:13.752Z,2.22
2022-08-07T09:24:33.425Z,1.90
2022-08-07T09:27:54.497Z,1.70
2022-08-07T09:30:37.301Z,2.75
2022-08-07T09:33:53.087Z,2.72
2022-08-07T09:36:30.195Z,2.25
2022-08-07T09:39:53.706Z,2.83
2022-08-07T09:42:25.048Z,3.00
2022-08-07T09:47:24.221Z,3.13
2022-08-07T09:48:30.158Z,3.22
2022-08-07T09:52:16.368Z,3.50
2022-08-07T09:54:27.204Z,3.78
2022-08-07T09:57:59.411Z,3.67
2022-08-07T10:00:32.536Z,4.70
2022-08-07T10:04:06.492Z,3.95
2022-08-07T10:06:36.510Z,4.03
2022-08-07T10:09:15.340Z,4.10
2022-08-07T10:12:10.513Z,3.53
2022-08-07T10:14:43.235Z,3.35
2022-08-07T10:18:02.546Z,3.65
2022-08-07T10:21:03.717Z,3.42
2022-08-07T10:24:08.695Z,3.22
2022-08-07T10:26:52.966Z,3.53
2022-08-07T10:29:51.835Z,3.40
2022-08-07T10:32:53.369Z,3.22
2022-08-07T10:35:55.837Z,3.22
2022-08-07T10:38:35.754Z,3.47
2022-08-07T10:41:15.302Z,3.60
2022-08-07T10:44:11.698Z,3.42
2022-08-07T10:47:00.595Z,3.50
2022-08-07T10:49:49.747Z,3.97
2022-08-07T10:52:36.590Z,2.95
2022-08-07T10:55:26.824Z,3.75
2022-08-07T10:58:33.203Z,3.10
2022-08-07T11:01:17.380Z,3.97
2022-08-07T11:04:31.660Z,3.03
2022-08-07T11:07:14.846Z,3.83
2022-08-07T11:10:07.390Z,3.22
2022-08-07T11:12:49.186Z,3.85
2022-08-07T11:15:34.240Z,3.85
2022-08-07T11:18:14.413Z,4.25
2022-08-07T11:21:04.400Z,3.55
2022-08-07T11:23:54.247Z,3.38
2022-08-07T11:26:31.338Z,4.20
2022-08-07T11:29:13.202Z,3.80
2022-08-07T11:32:05.476Z,3.67
2022-08-07T11:34:49.092Z,3.10
2022-08-07T11:38:08.814Z,3.40
2022-08-07T11:41:11.118Z,3.60
2022-08-07T11:44:11.785Z,3.53
2022-08-07T11:47:10.005Z,2.33
2022-08-07T11:50:32.671Z,4.38
2022-08-07T11:53:35.272Z,3.70
2022-08-07T11:56:26.700Z,2.72
2022-08-07T12:00:09.819Z,3.00
2022-08-07T12:02:30.640Z,2.25
2022-08-07T12:05:49.196Z,2.60
2022-08-07T12:08:25.861Z,2.17
2022-08-07T12:11:21.953Z,2.13
2022-08-07T12:14:01.654Z,3.00
2022-08-07T12:16:31.568Z,3.10
2022-08-07T12:19:21.996Z,2.30
2022-08-07T12:22:37.500Z,2.22
2022-08-07T12:26:03.215Z,2.65
2022-08-07T12:28:44.871Z,2.90
2022-08-07T12:31:23.780Z,2.70
2022-08-07T12:34:01.133Z,2.42
2022-08-07T12:36:33.287Z,3.28
2022-08-07T12:39:42.362Z,2.20
2022-08-07T12:41:53.829Z,2.10
2022-08-07T12:44:21.607Z,2.35
2022-08-07T12:47:33.230Z,2.03
2022-08-07T12:50:39.537Z,2.55
2022-08-07T12:53:19.061Z,2.20
2022-08-07T12:56:10.407Z,2.40
2022-08-07T12:58:42.905Z,2.35
2022-08-07T13:01:19.331Z,3.20
2022-08-07T13:04:03.156Z,1.90
2022-08-07T13:06:54.346Z,2.28
2022-08-07T13:10:20.565Z,1.70
2022-08-07T13:13:07.864Z,2.17
2022-08-07T13:15:51.177Z,2.40
2022-08-07T13:18:34.197Z,2.15
2022-08-07T13:21:50.417Z,2.10
2022-08-07T13:24:25.826Z,1.55
2022-08-07T13:27:05.934Z,2.10
2022-08-07T13:29:50.907Z,1.85
2022-08-07T13:32:32.753Z,2.08
2022-08-07T13:35:09.361Z,1.63
2022-08-07T13:38:05.032Z,1.63
2022-08-07T13:40:54.200Z,1.42
2022-08-07T13:43:22.584Z,1.20
2022-08-07T13:46:11.999Z,1.60
2022-08-07T13:48:58.582Z,1.88
2022-08-07T13:52:05.011Z,1.38
2022-08-07T13:54:16.446Z,1.80
2022-08-07T13:56:55.830Z,1.75
2022-08-07T13:59:27.524Z,1.50
2022-08-07T14:02:08.370Z,1.95
2022-08-07T14:04:49.378Z,1.70
2022-08-07T14:07:21.320Z,1.88
2022-08-07T14:10:02.013Z,1.83
2022-08-07T14:13:00.831Z,1.65
2022-08-07T14:15:28.368Z,1.83
2022-08-07T14:18:24.187Z,1.85
2022-08-07T14:22:00.458Z,1.60
2022-08-07T14:24:06.198Z,1.73
2022-08-07T14:26:52.313Z,1.75
2022-08-07T14:30:05.140Z,1.85
2022-08-07T14:32:12.887Z,1.60
2022-08-07T14:34:46.020Z,1.90
2022-08-07T14:37:16.854Z,1.70
2022-08-07T14:40:17.214Z,1.52
2022-08-07T14:43:01.454Z,1.50
2022-08-07T14:45:47.058Z,1.50
2022-08-07T14:48:20.359Z,1.73
2022-08-07T14:50:55.222Z,1.95
2022-08-07T14:53:49.489Z,1.65
2022-08-07T14:56:14.032Z,2.13
2022-08-07T14:58:45.104Z,1.83
2022-08-07T15:01:21.814Z,1.83
2022-08-07T15:03:52.170Z,1.98
2022-08-07T15:06:40.141Z,1.48
2022-08-07T15:12:06.728Z,2.00
2022-08-07T15:14:36.027Z,2.30
2022-08-07T15:17:32.482Z,1.77
2022-08-07T15:20:32.475Z,2.00
2022-08-07T15:25:56.882Z,1.75
2022-08-07T15:28:32.930Z,2.08
2022-08-07T15:32:00.470Z,2.10
2022-08-07T15:34:04.878Z,1.90
2022-08-07T15:37:04.605Z,2.15
2022-08-07T15:39:25.885Z,2.33
2022-08-07T15:42:44.103Z,2.67
2022-08-07T15:50:37.797Z,2.17
2022-08-07T15:53:52.006Z,1.98
2022-08-07T15:56:24.555Z,2.20
2022-08-07T15:58:55.085Z,2.10
2022-08-07T16:01:39.161Z,1.77
2022-08-07T16:04:14.675Z,2.00
2022-08-07T16:06:55.731Z,1.90
2022-08-07T16:09:41.013Z,1.95
2022-08-07T16:12:28.499Z,1.75
2022-08-07T16:15:42.112Z,2.78
2022-08-07T16:18:50.004Z,2.15
2022-08-07T16:22:03.218Z,1.73
2022-08-07T16:24:40.633Z,2.30
2022-08-07T16:27:26.459Z,2.00
2022-08-07T16:30:30.864Z,2.13
2022-08-07T16:34:02.031Z,3.08
2022-08-07T16:36:20.337Z,2.22
2022-08-07T16:39:14.945Z,2.38
2022-08-07T16:42:21.597Z,2.63
2022-08-07T16:46:47.251Z,2.72
2022-08-07T16:48:53.839Z,1.75
2022-08-07T16:52:01.989Z,2.47
2022-08-07T16:54:54.883Z,2.13
2022-08-07T16:58:00.987Z,1.95
2022-08-07T17:00:29.777Z,1.75
2022-08-07T17:03:19.257Z,2.28
2022-08-07T17:06:31.097Z,1.98
2022-08-07T17:10:06.419Z,2.08
2022-08-07T17:12:45.216Z,2.33
2022-08-07T17:15:44.734Z,2.53
2022-08-07T17:18:38.618Z,2.25
2022-08-07T17:21:19.040Z,2.20
2022-08-07T17:24:01.932Z,2.42
2022-08-07T17:26:51.329Z,2.35
2022-08-07T17:30:15.779Z,1.98
2022-08-07T17:32:52.863Z,2.03
2022-08-07T17:35:55.388Z,2.38
2022-08-07T17:38:56.911Z,2.42
2022-08-07T17:44:33.574Z,2.42
2022-08-07T17:50:00.874Z,2.08
2022-08-07T17:52:39.696Z,1.85
2022-08-07T17:55:15.969Z,2.00
2022-08-07T17:58:07.169Z,1.70
2022-08-07T18:00:48.388Z,2.30
2022-08-07T18:04:03.642Z,2.17
2022-08-07T18:06:38.546Z,2.10
2022-08-07T18:09:08.697Z,2.30
2022-08-07T18:12:06.676Z,2.15
2022-08-07T18:14:44.897Z,2.00
2022-08-07T18:18:46.460Z,1.98
2022-08-07T18:21:06.352Z,2.65
2022-08-07T18:23:43.050Z,2.25
2022-08-07T18:26:14.727Z,2.13
2022-08-07T18:30:04.514Z,2.88
2022-08-07T18:32:33.638Z,1.85
2022-08-07T18:35:51.778Z,1.52
2022-08-07T18:38:57.755Z,1.85
2022-08-07T18:41:46.738Z,2.13
2022-08-07T18:44:25.228Z,2.03
2022-08-07T18:47:20.947Z,1.70
2022-08-07T18:50:35.424Z,2.20
2022-08-07T18:53:13.005Z,1.85
2022-08-07T18:56:07.639Z,1.40
2022-08-07T18:58:59.590Z,1.83
2022-08-07T19:02:18.037Z,2.20
2022-08-07T19:05:15.588Z,2.22
2022-08-07T19:07:58.787Z,1.60
2022-08-07T19:10:51.904Z,2.10
2022-08-07T19:13:43.874Z,2.25
2022-08-07T19:17:04.212Z,1.90
2022-08-07T19:19:41.295Z,1.52
2022-08-07T19:22:31.368Z,2.20
2022-08-07T19:25:06.403Z,2.20
2022-08-07T19:28:57.738Z,1.80
2022-08-07T19:31:05.751Z,2.30
2022-08-07T19:33:18.820Z,1.80
2022-08-07T19:36:01.689Z,1.88
2022-08-07T19:38:32.090Z,2.47
2022-08-07T19:41:00.555Z,2.15
2022-08-07T19:43:48.816Z,2.50
2022-08-07T19:46:26.388Z,2.38
2022-08-07T19:49:16.230Z,2.05
2022-08-07T19:51:53.030Z,2.42
2022-08-07T19:54:33.984Z,2.38
2022-08-07T19:57:59.983Z,2.28
2022-08-07T19:59:59.715Z,1.85
2022-08-07T20:02:33.480Z,2.55
2022-08-07T20:05:04.021Z,2.00
2022-08-07T20:07:47.855Z,1.77
2022-08-07T20:10:37.291Z,2.63
2022-08-07T20:13:22.861Z,2.17
2022-08-07T20:15:51.731Z,1.70
2022-08-07T20:18:21.918Z,1.60
2022-08-07T20:21:02.428Z,2.20
2022-08-07T20:23:41.599Z,1.48
2022-08-07T20:26:15.326Z,1.63
2022-08-07T20:28:59.181Z,1.80
2022-08-07T20:31:27.997Z,1.27
2022-08-07T20:33:57.540Z,1.58
2022-08-07T20:36:27.280Z,1.60
2022-08-07T20:39:00.364Z,1.60
2022-08-07T20:41:38.423Z,1.17
2022-08-07T20:44:10.451Z,1.15
2022-08-07T20:46:43.773Z,1.67
2022-08-07T20:50:00.583Z,1.10
2022-08-07T20:52:01.899Z,1.23
2022-08-07T20:54:33.278Z,1.10
2022-08-07T20:57:06.847Z,1.00
2022-08-07T21:00:07.010Z,1.17
2022-08-07T21:02:54.314Z,0.82
2022-08-07T21:05:25.724Z,0.75
2022-08-07T21:08:16.458Z,1.20
2022-08-07T21:10:49.267Z,0.70
2022-08-07T21:13:24.709Z,1.02
2022-08-07T21:16:09.128Z,0.90
2022-08-07T21:18:41.245Z,1.10
2022-08-07T21:21:16.459Z,1.10
2022-08-07T21:24:05.980Z,0.73
2022-08-07T21:26:53.633Z,0.90
2022-08-07T21:29:33.438Z,1.55
2022-08-07T21:32:43.776Z,0.90
2022-08-07T21:36:06.495Z,1.08
2022-08-07T21:38:45.725Z,1.02
2022-08-07T21:41:27.057Z,0.93
2022-08-07T21:44:34.494Z,0.90
2022-08-07T21:47:23.637Z,1.30
2022-08-07T21:50:03.287Z,0.80
2022-08-07T21:52:59.954Z,0.90
2022-08-07T21:58:35.262Z,1.05
2022-08-07T22:01:20.745Z,1.00
2022-08-07T22:04:20.174Z,1.30
2022-08-07T22:06:57.564Z,1.10
2022-08-07T22:09:34.737Z,0.98
2022-08-07T22:12:34.827Z,1.02
2022-08-07T22:16:45.173Z,0.90
2022-08-07T22:18:07.183Z,1.10
2022-08-07T22:21:12.866Z,1.55
2022-08-07T22:24:16.155Z,1.30
2022-08-07T22:26:49.476Z,1.10
2022-08-07T22:29:33.818Z,1.23
2022-08-07T22:32:06.857Z,1.10
2022-08-07T22:34:55.543Z,1.05
2022-08-07T22:38:03.455Z,1.25
2022-08-07T22:40:49.556Z,1.10
2022-08-07T22:43:31.366Z,0.90
2022-08-07T22:47:02.265Z,1.58
2022-08-07T22:49:39.793Z,1.10
2022-08-07T22:52:51.190Z,1.30
2022-08-07T22:55:47.450Z,1.10
2022-08-07T22:58:42.645Z,1.35
2022-08-07T23:01:50.810Z,1.00
2022-08-07T23:04:58.099Z,1.00
2022-08-07T23:08:05.824Z,1.23
2022-08-07T23:10:48.825Z,1.33
2022-08-07T23:14:15.309Z,1.33
2022-08-07T23:17:24.693Z,1.70
2022-08-07T23:20:40.563Z,1.40
2022-08-07T23:24:05.396Z,1.10
2022-08-07T23:26:35.523Z,1.20
2022-08-07T23:34:20.879Z,1.05
2022-08-07T23:35:28.301Z,1.75
2022-08-07T23:38:36.820Z,1.63
2022-08-07T23:41:33.446Z,1.55
2022-08-07T23:44:09.010Z,1.40
2022-08-07T23:47:12.562Z,1.33
2022-08-07T23:50:00.994Z,1.30
2022-08-07T23:52:59.624Z,1.23
2022-08-07T23:55:55.675Z,1.20
2022-08-07T23:58:37.222Z,1.05
